Time;durP1;ratioP1;P1;durP2;ratioP2;P2;SDS_P1;SDS_P2;PMS_P1;PMS_P2;Temp;Humidity;BMP_temperature;BMP_pressure;BME280_temperature;BME280_humidity;BME280_pressure;Samples;Min_cycle;Max_cycle;Signal;HPM_P1;HPM_P2
2022/01/06 00:00:18;;;;;;;11.60;2.90;;;;;;;0.07;90.37;96256.13;2073228;28;20264;-61
2022/01/06 00:01:20;;;;;;;7.10;2.65;;;;;;;0.22;89.88;96283.13;2073164;28;20194;-61
2022/01/06 00:02:21;;;;;;;14.02;3.10;;;;;;;0.19;90.50;96278.88;2073171;28;20206;-61
2022/01/06 00:03:23;;;;;;;51.63;19.17;;;;;;;0.22;90.33;96287.41;2072453;28;20268;-58
2022/01/06 00:04:25;;;;;;;46.22;20.05;;;;;;;0.23;90.20;96291.69;2073340;28;20197;-58
2022/01/06 00:05:27;;;;;;;21.00;9.70;;;;;;;0.21;89.84;96285.75;2073059;28;20198;-63
2022/01/06 00:06:30;;;;;;;14.43;5.53;;;;;;;0.07;89.72;96252.72;2073041;28;20205;-61
2022/01/06 00:07:32;;;;;;;19.83;4.45;;;;;;;-0.04;90.10;96240.16;2072600;28;20194;-61
2022/01/06 00:08:35;;;;;;;11.65;3.95;;;;;;;0.16;89.76;96281.59;2073152;28;20198;-61
2022/01/06 00:09:36;;;;;;;13.98;3.90;;;;;;;0.20;89.86;96284.91;2073151;28;20194;-61
2022/01/06 00:10:38;;;;;;;12.30;3.63;;;;;;;0.17;90.02;96285.81;2073061;28;20197;-61
2022/01/06 00:11:40;;;;;;;19.63;3.33;;;;;;;0.22;90.32;96285.69;2072959;28;20538;-61
2022/01/06 00:12:49;;;;;;;7.43;2.90;;;;;;;0.21;89.97;96281.41;2072650;28;20621;-61
2022/01/06 00:17:18;;;;;;;18.02;3.58;;;;;;;0.24;89.70;96280.50;2072299;28;20629;-61
2022/01/06 00:23:33;;;;;;;12.88;3.10;;;;;;;0.25;89.82;96287.31;2070404;28;20588;-61
2022/01/06 00:24:34;;;;;;;9.63;3.42;;;;;;;0.27;nan;96288.09;2072981;28;20194;-61
2022/01/06 00:25:36;;;;;;;10.73;2.92;;;;;;;0.24;89.59;96285.66;2072962;28;20198;-61
2022/01/06 00:26:38;;;;;;;9.88;3.35;;;;;;;-0.02;89.73;96244.41;2072844;28;20209;-61
2022/01/06 00:27:39;;;;;;;11.32;3.20;;;;;;;0.26;89.97;96294.16;2072580;28;20193;-61
2022/01/06 00:28:41;;;;;;;10.25;3.40;;;;;;;0.24;89.75;96290.81;2072964;28;20205;-61
2022/01/06 00:29:43;;;;;;;12.13;2.80;;;;;;;0.24;89.86;96294.22;2072907;28;20723;-61
2022/01/06 00:30:44;;;;;;;6.88;3.80;;;;;;;0.17;89.96;96278.09;2073023;28;20205;-61
2022/01/06 00:31:46;;;;;;;10.57;3.13;;;;;;;0.25;89.57;96282.16;2072783;28;20201;-61
2022/01/06 00:32:48;;;;;;;7.45;3.00;;;;;;;0.24;89.76;96271.03;2070588;28;20892;-61
2022/01/06 00:33:49;;;;;;;15.65;2.83;;;;;;;0.22;89.73;96277.97;2072833;28;20193;-61
2022/01/06 00:34:51;;;;;;;11.85;3.38;;;;;;;0.27;89.40;96285.53;2072960;28;20205;-62
2022/01/06 00:35:52;;;;;;;11.38;3.13;;;;;;;0.14;89.51;96267.91;2072956;28;20194;-61
2022/01/06 00:36:54;;;;;;;15.70;3.83;;;;;;;0.28;89.24;96287.22;2072923;28;20198;-61
2022/01/06 00:37:55;;;;;;;16.77;2.78;;;;;;;0.32;89.61;96289.66;2072545;28;20695;-61
2022/01/06 00:38:57;;;;;;;10.90;3.10;;;;;;;0.35;89.45;96286.13;2072048;28;20212;-57
2022/01/06 00:39:58;;;;;;;32.17;11.60;;;;;;;0.29;89.61;96284.56;2072851;28;20541;-59
2022/01/06 00:41:00;;;;;;;14.43;5.70;;;;;;;0.34;89.68;96290.44;2072964;28;20204;-61
2022/01/06 00:42:02;;;;;;;13.50;4.22;;;;;;;0.33;89.63;96290.47;2072727;28;20198;-61
2022/01/06 00:43:05;;;;;;;20.73;3.38;;;;;;;0.31;89.49;96287.13;2072056;28;20239;-61
2022/01/06 00:44:08;;;;;;;9.10;3.30;;;;;;;0.27;89.76;96282.97;2072493;28;20204;-61
2022/01/06 00:45:09;;;;;;;18.60;4.68;;;;;;;0.29;89.60;96287.16;2071690;28;20209;-61
2022/01/06 00:46:11;;;;;;;6.30;2.95;;;;;;;0.27;89.71;96282.97;2072883;28;20655;-61
2022/01/06 00:47:12;;;;;;;9.57;2.85;;;;;;;0.32;89.47;96281.91;2072491;28;20193;-61
2022/01/06 00:48:14;;;;;;;27.10;4.20;;;;;;;0.31;89.79;96287.13;2072450;28;20225;-61
2022/01/06 00:49:17;;;;;;;5.55;2.50;;;;;;;0.04;90.03;96245.94;2072926;28;20198;-61
2022/01/06 00:50:18;;;;;;;9.10;2.83;;;;;;;0.21;89.88;96275.44;2072796;28;20652;-61
2022/01/06 00:51:20;;;;;;;11.73;2.45;;;;;;;0.27;89.71;96285.53;2072834;28;20216;-61
2022/01/06 00:52:21;;;;;;;10.27;3.10;;;;;;;0.32;89.89;96284.50;2072807;28;20198;-61
2022/01/06 00:53:23;;;;;;;11.40;2.60;;;;;;;0.27;89.95;96280.38;2072445;28;20225;-61
2022/01/06 00:54:24;;;;;;;7.15;2.70;;;;;;;0.27;89.80;96285.53;2072834;28;20202;-61
2022/01/06 00:55:26;;;;;;;9.98;3.35;;;;;;;0.32;89.90;96291.38;2072051;28;20220;-61
2022/01/06 00:56:27;;;;;;;8.77;2.70;;;;;;;0.21;89.94;96280.59;2072021;28;20648;-61
2022/01/06 00:57:29;;;;;;;7.95;2.67;;;;;;;0.27;89.66;96280.38;2072761;28;20212;-61
2022/01/06 00:58:30;;;;;;;11.57;2.80;;;;;;;0.33;89.25;96286.19;2072515;28;20308;-61
2022/01/06 00:59:32;;;;;;;12.07;3.03;;;;;;;0.36;88.95;96295.53;2070716;28;20202;-61
2022/01/06 01:00:40;;;;;;;9.68;2.35;;;;;;;0.31;89.39;96282.78;2072720;28;20695;-61
2022/01/06 01:01:42;;;;;;;9.07;2.50;;;;;;;0.35;89.45;96288.69;2072768;28;20193;-61
2022/01/06 01:02:44;;;;;;;6.55;2.88;;;;;;;0.16;89.08;96262.72;2072214;28;20194;-61
2022/01/06 01:03:46;;;;;;;7.63;3.20;;;;;;;0.37;89.07;96290.34;2072775;28;20228;-61
2022/01/06 01:04:47;;;;;;;14.30;3.00;;;;;;;0.36;89.10;96298.13;2072476;28;20197;-62
2022/01/06 01:05:52;;;;;;;10.65;2.55;;;;;;;0.36;89.12;96298.13;2072625;28;20204;-61
2022/01/06 01:06:53;;;;;;;5.75;2.47;;;;;;;0.38;89.15;96294.59;2072319;28;20201;-61
2022/01/06 01:07:54;;;;;;;11.93;2.35;;;;;;;0.39;89.37;96295.41;2072221;28;20221;-61
2022/01/06 01:08:56;;;;;;;13.20;3.08;;;;;;;0.37;88.79;96292.06;2072674;28;20540;-61
2022/01/06 01:09:57;;;;;;;11.52;4.75;;;;;;;0.38;88.59;96297.16;2072725;28;20668;-61
2022/01/06 01:10:59;;;;;;;7.35;2.78;;;;;;;0.42;88.89;96304.81;2071463;28;20201;-61
2022/01/06 01:12:03;;;;;;;14.20;3.00;;;;;;;0.33;88.94;96291.34;2072498;28;20205;-61
2022/01/06 01:13:08;;;;;;;11.70;2.28;;;;;;;0.39;89.02;96304.03;2072190;28;20233;-61
2022/01/06 01:14:30;;;;;;;8.68;3.10;;;;;;;0.37;88.91;96302.38;2072047;28;20530;-61
2022/01/06 01:15:33;;;;;;;10.07;2.50;;;;;;;0.46;88.87;96302.06;2071263;28;20206;-62
2022/01/06 01:16:35;;;;;;;6.35;2.92;;;;;;;0.42;89.09;96310.78;2072650;28;20233;-62
2022/01/06 01:17:38;;;;;;;10.52;2.35;;;;;;;0.36;89.19;96300.69;2072160;28;20201;-61
2022/01/06 01:18:45;;;;;;;7.45;2.80;;;;;;;0.28;89.24;96282.06;2071985;28;20202;-61
2022/01/06 01:19:46;;;;;;;10.80;2.58;;;;;;;0.25;89.49;96282.16;2072499;28;20202;-61
2022/01/06 01:20:50;;;;;;;8.60;2.95;;;;;;;0.41;89.08;96310.84;2072655;28;20193;-61
2022/01/06 01:21:53;;;;;;;11.00;3.70;;;;;;;0.37;89.20;96305.81;2072686;28;20194;-61
2022/01/06 01:22:54;;;;;;;11.23;3.42;;;;;;;0.39;89.29;96313.47;2072200;28;20703;-62
2022/01/06 01:23:58;;;;;;;19.80;3.03;;;;;;;0.39;89.27;96321.19;2072574;28;20580;-61
2022/01/06 01:24:59;;;;;;;14.18;3.35;;;;;;;0.39;89.11;96316.03;2072554;28;20213;-61
2022/01/06 01:26:00;;;;;;;16.10;2.70;;;;;;;0.35;89.21;96312.75;2072716;28;20201;-61
2022/01/06 01:27:04;;;;;;;12.60;2.90;;;;;;;0.17;89.62;96290.13;2072696;28;20661;-61
2022/01/06 01:28:06;;;;;;;15.23;3.05;;;;;;;0.45;89.12;96320.16;2071886;28;20213;-61
2022/01/06 01:29:17;;;;;;;6.35;2.67;;;;;;;0.45;89.86;96322.72;2072669;28;20735;-61
2022/01/06 01:30:20;;;;;;;9.45;3.05;;;;;;;0.45;89.46;96331.31;2071589;28;20201;-62
2022/01/06 01:32:36;;;;;;;13.88;3.33;;;;;;;0.35;90.06;96319.59;2072342;28;20296;-61
2022/01/06 01:33:39;;;;;;;19.67;3.33;;;;;;;0.34;90.55;96323.09;2072426;28;20225;-62
2022/01/06 01:34:44;;;;;;;7.10;2.60;;;;;;;0.35;91.02;96325.63;2072460;28;20198;-62
2022/01/06 01:35:46;;;;;;;9.27;2.65;;;;;;;0.36;90.84;96327.28;2072429;28;20325;-61
2022/01/06 01:36:48;;;;;;;6.90;2.92;;;;;;;0.34;91.23;96326.50;2072564;28;20681;-62
2022/01/06 01:37:49;;;;;;;12.65;3.00;;;;;;;0.31;91.60;96323.19;2071944;28;20202;-61
2022/01/06 01:38:51;;;;;;;6.40;2.97;;;;;;;0.13;91.53;96293.72;2072590;28;20201;-61
2022/01/06 01:39:52;;;;;;;8.75;2.92;;;;;;;0.28;91.83;96310.41;2070906;28;20193;-62
2022/01/06 01:40:54;;;;;;;12.15;2.83;;;;;;;0.36;92.07;96327.28;2071880;28;20197;-61
2022/01/06 01:41:55;;;;;;;7.82;2.83;;;;;;;0.30;91.58;96319.75;2071912;28;20201;-61
2022/01/06 01:42:57;;;;;;;13.55;2.63;;;;;;;0.31;91.93;96329.16;2070392;28;20244;-61
2022/01/06 01:43:58;;;;;;;6.55;2.38;;;;;;;0.27;92.06;96322.44;2072416;28;20237;-61
2022/01/06 01:45:02;;;;;;;6.18;1.92;;;;;;;0.37;91.50;96322.97;2072538;28;20201;-61
2022/01/06 01:46:10;;;;;;;8.95;3.03;;;;;;;0.27;91.91;96311.28;2071850;28;20198;-61
2022/01/06 01:47:15;;;;;;;10.70;2.55;;;;;;;0.32;91.62;96325.72;2071566;28;20276;-61
2022/01/06 01:48:25;;;;;;;8.73;2.38;;;;;;;0.35;91.56;96327.34;2071917;28;20228;-61
2022/01/06 01:49:32;;;;;;;10.18;2.83;;;;;;;0.36;91.85;96334.19;2071591;28;20204;-61
2022/01/06 01:50:34;;;;;;;13.60;2.80;;;;;;;0.36;91.62;96335.03;2069959;28;20244;-61
2022/01/06 01:51:36;;;;;;;6.57;2.67;;;;;;;0.37;91.88;96338.44;2071662;28;20202;-61
2022/01/06 01:52:42;;;;;;;7.88;3.20;;;;;;;0.23;91.55;96304.56;2072175;28;20205;-61
2022/01/06 01:53:44;;;;;;;8.20;3.00;;;;;;;0.36;91.62;96332.44;2072363;28;20189;-61
2022/01/06 01:54:45;;;;;;;11.73;2.50;;;;;;;0.27;91.30;96311.28;2072498;28;20204;-61
2022/01/06 01:55:47;;;;;;;13.63;3.35;;;;;;;0.13;91.60;96299.69;2072564;28;20208;-61
2022/01/06 01:56:48;;;;;;;9.90;3.55;;;;;;;0.35;91.06;96329.91;2071647;28;20204;-62
2022/01/06 01:57:51;;;;;;;5.80;2.40;;;;;;;0.34;91.14;96329.06;2072001;28;20204;-61
2022/01/06 01:58:53;;;;;;;5.63;2.58;;;;;;;0.42;90.90;96348.59;2072404;28;20206;-61
2022/01/06 01:59:54;;;;;;;9.07;2.72;;;;;;;0.44;90.81;96339.09;2072503;28;20193;-61
2022/01/06 02:00:56;;;;;;;11.00;2.90;;;;;;;0.41;90.80;96347.75;2072086;28;20194;-61
2022/01/06 02:01:58;;;;;;;8.18;2.40;;;;;;;0.41;90.69;96340.00;2072436;28;20189;-61
2022/01/06 02:02:59;;;;;;;8.27;2.50;;;;;;;0.41;91.38;96342.59;2071713;28;20249;-61
2022/01/06 02:04:01;;;;;;;8.48;2.60;;;;;;;0.42;91.37;96338.31;2072380;28;20585;-61
2022/01/06 02:05:04;;;;;;;6.53;2.78;;;;;;;0.48;91.36;96346.66;2071648;28;20641;-61
2022/01/06 02:06:05;;;;;;;12.68;2.92;;;;;;;0.44;90.91;96345.09;2072223;28;20208;-61
2022/01/06 02:07:07;;;;;;;13.75;3.22;;;;;;;0.42;91.61;96341.72;2072333;28;20197;-61
2022/01/06 02:08:09;;;;;;;10.68;3.30;;;;;;;0.42;91.83;96339.13;2071958;28;20834;-61
2022/01/06 02:09:11;;;;;;;10.18;2.88;;;;;;;0.34;91.28;96329.06;2071880;28;20205;-61
2022/01/06 02:10:12;;;;;;;6.35;2.90;;;;;;;0.37;91.24;96336.72;2072328;28;20198;-61
2022/01/06 02:11:14;;;;;;;5.88;2.55;;;;;;;0.27;91.28;96313.88;2071124;28;20198;-62
2022/01/06 02:12:32;;;;;;;13.52;3.05;;;;;;;0.41;91.55;96345.16;2071931;28;20197;-61
2022/01/06 02:13:47;;;;;;;7.70;2.72;;;;;;;0.38;91.42;96338.38;2071729;28;20236;-62
2022/01/06 02:14:53;;;;;;;8.80;2.78;;;;;;;0.40;91.37;96335.78;2071102;28;20231;-61
2022/01/06 02:15:58;;;;;;;6.38;2.67;;;;;;;0.40;91.60;96338.34;2070757;28;20202;-62
2022/01/06 02:17:00;;;;;;;10.90;3.60;;;;;;;0.42;91.39;96339.13;2071243;28;20704;-62
2022/01/06 02:18:01;;;;;;;14.80;3.53;;;;;;;0.36;91.70;96329.03;2069923;28;20230;-62
2022/01/06 02:19:05;;;;;;;12.88;2.78;;;;;;;0.23;91.08;96307.97;2071733;28;20676;-62
2022/01/06 02:20:09;;;;;;;13.32;3.17;;;;;;;0.37;91.38;96333.28;2071992;28;20197;-62
2022/01/06 02:21:11;;;;;;;12.27;2.55;;;;;;;0.49;91.87;96347.50;2071966;28;20201;-62
2022/01/06 02:22:12;;;;;;;12.43;2.67;;;;;;;0.52;92.10;96347.41;2071880;28;20645;-61
2022/01/06 02:23:13;;;;;;;11.48;3.60;;;;;;;0.47;91.06;96339.84;2070082;28;20760;-61
2022/01/06 02:24:15;;;;;;;13.57;2.35;;;;;;;0.24;90.94;96307.09;2071844;28;20205;-61
2022/01/06 02:25:18;;;;;;;10.30;2.58;;;;;;;0.56;91.12;96351.56;2072001;28;20194;-61
2022/01/06 02:26:21;;;;;;;4.47;2.60;;;;;;;0.52;91.26;96348.25;2072042;28;20206;-61
2022/01/06 02:27:22;;;;;;;10.32;3.03;;;;;;;0.50;90.92;96355.19;2072355;28;20198;-61
2022/01/06 02:28:24;;;;;;;6.68;2.50;;;;;;;0.55;91.10;96352.47;2071733;28;20229;-61
2022/01/06 02:29:25;;;;;;;15.88;3.20;;;;;;;0.35;91.44;96330.78;2072106;28;20523;-61
2022/01/06 02:30:27;;;;;;;7.82;2.97;;;;;;;0.51;90.86;96345.72;2072086;28;20724;-61
2022/01/06 02:31:40;;;;;;;10.27;2.75;;;;;;;0.44;91.36;96344.25;2072165;28;20202;-61
2022/01/06 02:32:42;;;;;;;6.15;2.50;;;;;;;0.54;90.81;96354.19;2071446;28;20285;-61
2022/01/06 02:33:44;;;;;;;4.53;2.10;;;;;;;-0.10;90.26;96253.25;2069874;28;20759;-61
2022/01/06 02:34:46;;;;;;;4.97;1.80;;;;;;;0.55;90.50;96358.47;2071950;28;20192;-61
2022/01/06 02:35:48;;;;;;;7.03;2.30;;;;;;;0.58;90.84;96358.34;2072060;28;20691;-61
2022/01/06 02:36:50;;;;;;;9.85;2.38;;;;;;;0.52;90.58;96361.13;2072179;28;20537;-61
2022/01/06 02:37:51;;;;;;;4.78;2.55;;;;;;;0.55;90.70;96357.63;2071549;28;20304;-61
2022/01/06 02:38:52;;;;;;;10.15;2.38;;;;;;;0.46;90.59;96345.88;2071944;28;20210;-61
2022/01/06 02:39:54;;;;;;;4.38;1.52;;;;;;;0.56;91.24;96356.72;2071126;28;20194;-61
2022/01/06 02:40:55;;;;;;;8.00;2.67;;;;;;;0.65;89.93;96360.72;2073666;28;20205;-61
2022/01/06 02:41:57;;;;;;;3.65;1.40;;;;;;;0.59;89.72;96360.03;2073896;28;20212;-61
2022/01/06 02:42:59;;;;;;;4.53;2.22;;;;;;;0.51;90.11;96351.72;2073374;28;20233;-61
2022/01/06 02:44:03;;;;;;;5.28;2.70;;;;;;;0.50;90.11;96349.19;2073343;28;20206;-61
2022/01/06 02:45:05;;;;;;;9.98;2.60;;;;;;;0.59;90.20;96360.03;2073667;28;20202;-61
2022/01/06 02:46:07;;;;;;;7.38;1.70;;;;;;;0.55;90.03;96353.31;2073432;28;20613;-61
2022/01/06 02:47:08;;;;;;;7.25;2.50;;;;;;;0.59;89.85;96361.78;2073796;28;20202;-61
2022/01/06 02:48:10;;;;;;;12.63;3.00;;;;;;;0.57;90.01;96359.25;2072067;28;20230;-61
2022/01/06 02:49:12;;;;;;;9.02;3.20;;;;;;;0.61;89.63;96361.72;2073692;28;20194;-61
2022/01/06 02:50:15;;;;;;;7.35;2.17;;;;;;;0.44;89.70;96337.34;2073726;28;20224;-61
2022/01/06 02:51:16;;;;;;;4.30;1.70;;;;;;;0.62;89.69;96358.25;2073723;28;20330;-61
2022/01/06 02:52:18;;;;;;;6.82;2.25;;;;;;;0.56;89.69;96374.75;2073765;28;20194;-61
2022/01/06 02:53:20;;;;;;;4.85;2.28;;;;;;;0.61;89.73;96366.88;2073323;28;20228;-61
2022/01/06 02:54:21;;;;;;;12.85;2.20;;;;;;;0.59;89.69;96370.34;2073732;28;20206;-61
2022/01/06 02:55:23;;;;;;;7.95;2.35;;;;;;;0.57;89.78;96372.13;2073712;28;20663;-61
2022/01/06 02:56:24;;;;;;;6.63;2.45;;;;;;;0.56;90.34;96372.19;2072557;28;20220;-61
2022/01/06 02:57:25;;;;;;;4.60;2.15;;;;;;;0.52;90.54;96384.31;2073727;28;20202;-61
2022/01/06 02:58:27;;;;;;;5.18;2.13;;;;;;;0.46;90.40;96379.38;2072692;28;20785;-61
2022/01/06 02:59:29;;;;;;;8.80;2.35;;;;;;;0.41;90.45;96364.94;2073492;28;20703;-62
2022/01/06 03:00:30;;;;;;;9.45;2.22;;;;;;;0.53;90.55;96386.03;2073085;28;20198;-62
2022/01/06 03:01:37;;;;;;;6.47;2.28;;;;;;;0.43;90.67;96378.63;2072614;28;20307;-62
2022/01/06 03:02:43;;;;;;;9.25;2.72;;;;;;;0.52;90.78;96381.75;2070572;28;20202;-61
2022/01/06 03:03:45;;;;;;;5.10;2.60;;;;;;;0.49;90.70;96389.59;2073800;28;20218;-61
2022/01/06 03:04:46;;;;;;;9.20;2.45;;;;;;;0.55;90.78;96389.38;2072430;28;20214;-61
2022/01/06 03:05:47;;;;;;;7.13;2.60;;;;;;;0.55;90.96;96391.97;2073725;28;20204;-61
2022/01/06 03:06:49;;;;;;;5.78;2.95;;;;;;;0.42;90.90;96379.53;2072236;28;20763;-62
2022/01/06 03:07:51;;;;;;;3.30;1.77;;;;;;;0.48;91.21;96384.47;2073002;28;20221;-61
2022/01/06 03:08:53;;;;;;;9.15;2.35;;;;;;;0.51;91.10;96392.97;2073804;28;20190;-61
2022/01/06 03:09:56;;;;;;;5.75;2.53;;;;;;;0.51;90.91;96392.09;2073687;28;20197;-62
2022/01/06 03:10:57;;;;;;;6.75;3.00;;;;;;;0.45;91.02;96395.75;2073673;28;20190;-62
2022/01/06 03:12:00;;;;;;;12.10;2.63;;;;;;;0.56;91.26;96403.94;2073468;28;20247;-61
2022/01/06 03:13:02;;;;;;;12.88;2.80;;;;;;;0.58;90.90;96403.91;2073227;28;20226;-63
2022/01/06 03:14:03;;;;;;;12.02;2.10;;;;;;;0.55;91.50;96402.28;2073658;28;20201;-62
2022/01/06 03:15:10;;;;;;;5.32;2.28;;;;;;;0.46;91.70;96399.97;2073597;28;20212;-61
2022/01/06 03:16:12;;;;;;;8.45;3.00;;;;;;;0.46;92.41;96406.88;2072590;28;20208;-62
2022/01/06 03:17:13;;;;;;;4.93;1.88;;;;;;;0.43;93.09;96406.97;2073600;28;20193;-62
2022/01/06 03:18:15;;;;;;;5.70;1.88;;;;;;;0.43;93.25;96410.38;2073074;28;20232;-62
2022/01/06 03:19:17;;;;;;;12.15;2.75;;;;;;;0.40;93.44;96405.34;2073541;28;20210;-62
2022/01/06 03:20:21;;;;;;;11.23;2.95;;;;;;;0.42;94.09;96420.75;2073497;28;20806;-61
2022/01/06 03:21:23;;;;;;;7.45;2.50;;;;;;;0.30;94.62;96421.97;2073555;28;20198;-61
2022/01/06 03:22:24;;;;;;;6.13;2.28;;;;;;;0.34;94.75;96421.00;2073696;28;20201;-61
2022/01/06 03:23:25;;;;;;;7.47;3.05;;;;;;;0.32;94.89;96422.78;2073158;28;20887;-61
2022/01/06 03:24:27;;;;;;;10.73;2.47;;;;;;;0.32;95.35;96420.19;2071685;28;20198;-61
2022/01/06 03:25:28;;;;;;;10.60;3.20;;;;;;;0.31;95.14;96423.66;2073412;28;20201;-62
2022/01/06 03:26:30;;;;;;;5.95;2.50;;;;;;;0.29;95.58;96426.25;2071894;28;20205;-62
2022/01/06 03:27:32;;;;;;;6.68;2.90;;;;;;;0.29;95.28;96425.44;2073504;28;20645;-61
2022/01/06 03:28:33;;;;;;;5.28;2.40;;;;;;;0.31;95.28;96421.91;2072993;28;20222;-61
2022/01/06 03:29:35;;;;;;;9.63;3.42;;;;;;;0.21;95.45;96412.78;2073358;28;20194;-61
2022/01/06 03:30:37;;;;;;;4.32;2.30;;;;;;;0.31;95.72;96426.22;2071157;28;20213;-61
2022/01/06 03:31:38;;;;;;;13.57;3.50;;;;;;;0.30;95.77;96427.13;2073554;28;20202;-61
2022/01/06 03:32:40;;;;;;;4.88;2.58;;;;;;;0.31;96.09;96436.53;2073113;28;20198;-61
2022/01/06 03:33:42;;;;;;;7.55;2.50;;;;;;;0.27;96.15;96417.75;2073486;28;20542;-61
2022/01/06 03:34:44;;;;;;;12.05;3.03;;;;;;;0.08;96.55;96384.00;2073469;28;20202;-61
2022/01/06 03:35:46;;;;;;;8.85;2.60;;;;;;;0.33;96.27;96429.59;2073581;28;20197;-61
2022/01/06 03:36:47;;;;;;;11.10;2.80;;;;;;;0.30;96.39;96424.56;2073327;28;20220;-62
2022/01/06 03:37:49;;;;;;;7.68;3.20;;;;;;;0.30;96.36;96425.38;2071829;28;20715;-61
2022/01/06 03:38:51;;;;;;;11.77;3.33;;;;;;;0.35;96.52;96427.81;2072875;28;20833;-61
2022/01/06 03:39:53;;;;;;;12.38;3.22;;;;;;;0.15;96.08;96402.69;2072946;28;20542;-61
2022/01/06 03:40:54;;;;;;;5.32;2.42;;;;;;;0.39;96.53;96427.69;2073390;28;20538;-61
2022/01/06 03:41:56;;;;;;;12.57;3.35;;;;;;;0.38;96.64;96433.72;2073524;28;20201;-61
2022/01/06 03:42:57;;;;;;;9.82;2.97;;;;;;;0.33;96.20;96435.63;2072828;28;20225;-61
2022/01/06 03:43:59;;;;;;;10.07;3.95;;;;;;;0.42;96.60;96431.91;2073535;28;20206;-61
2022/01/06 03:45:02;;;;;;;16.10;3.45;;;;;;;0.41;96.42;96443.06;2073387;28;20205;-61
2022/01/06 03:46:04;;;;;;;8.75;3.10;;;;;;;0.41;96.62;96439.66;2073362;28;20205;-61
2022/01/06 03:47:06;;;;;;;5.30;2.63;;;;;;;0.49;96.31;96441.13;2073287;28;20279;-61
2022/01/06 03:48:07;;;;;;;3.85;2.08;;;;;;;-0.03;95.84;96355.16;2072916;28;20724;-61
2022/01/06 03:49:09;;;;;;;5.28;2.22;;;;;;;0.43;95.97;96443.88;2071926;28;20205;-61
2022/01/06 03:50:13;;;;;;;11.88;2.75;;;;;;;0.43;96.50;96449.03;2072804;28;20618;-61
2022/01/06 03:51:14;;;;;;;5.70;2.78;;;;;;;0.46;96.46;96440.38;2072400;28;20202;-61
2022/01/06 03:52:16;;;;;;;9.93;2.70;;;;;;;0.37;96.42;96436.34;2073337;28;20630;-61
2022/01/06 03:53:17;;;;;;;6.55;3.08;;;;;;;0.44;96.09;96448.16;2072294;28;20245;-61
2022/01/06 03:54:19;;;;;;;5.63;2.58;;;;;;;0.42;96.49;96444.78;2073303;28;20205;-61
2022/01/06 03:55:21;;;;;;;10.60;2.60;;;;;;;0.37;96.51;96446.66;2073316;28;20561;-61
2022/01/06 03:56:22;;;;;;;11.90;2.92;;;;;;;0.36;96.67;96445.81;2071706;28;20198;-61
2022/01/06 03:57:24;;;;;;;6.10;3.17;;;;;;;0.34;96.93;96450.16;2073256;28;20205;-61
2022/01/06 03:58:25;;;;;;;8.73;2.90;;;;;;;0.29;97.04;96443.47;2072793;28;20237;-61
2022/01/06 03:59:26;;;;;;;8.23;3.30;;;;;;;0.05;96.84;96403.84;2072397;28;20197;-61
2022/01/06 04:00:28;;;;;;;9.88;2.95;;;;;;;0.23;97.57;96434.19;2072539;28;20198;-61
2022/01/06 04:01:29;;;;;;;8.07;3.40;;;;;;;0.35;97.44;96451.00;2073011;28;20197;-61
2022/01/06 04:02:31;;;;;;;7.55;2.80;;;;;;;0.24;97.63;96435.88;2071857;28;20197;-61
2022/01/06 04:03:34;;;;;;;10.50;4.00;;;;;;;0.32;97.09;96443.38;2072570;28;20273;-60
2022/01/06 04:04:36;;;;;;;8.07;2.95;;;;;;;0.05;97.26;96409.84;2073273;28;20642;-61
2022/01/06 04:05:38;;;;;;;8.10;3.30;;;;;;;0.26;97.69;96444.41;2073130;28;20202;-61
2022/01/06 04:06:40;;;;;;;8.13;3.03;;;;;;;0.24;97.70;96450.50;2073214;28;20664;-61
2022/01/06 04:07:42;;;;;;;7.95;3.10;;;;;;;0.19;97.67;96436.00;2072265;28;20205;-61
2022/01/06 04:08:44;;;;;;;11.57;3.15;;;;;;;0.26;97.40;96448.72;2073064;28;20190;-61
2022/01/06 04:09:46;;;;;;;5.93;3.53;;;;;;;0.14;97.62;96434.50;2072526;28;20204;-61
2022/01/06 04:10:47;;;;;;;9.73;3.13;;;;;;;0.21;97.93;96448.00;2073147;28;20809;-61
2022/01/06 04:11:49;;;;;;;12.30;3.40;;;;;;;0.22;97.92;96441.94;2072480;28;20751;-61
2022/01/06 04:12:50;;;;;;;8.68;3.10;;;;;;;0.02;98.05;96414.22;2071983;28;20209;-61
2022/01/06 04:13:52;;;;;;;5.72;2.78;;;;;;;-0.04;98.23;96404.94;2073099;28;20201;-61
2022/01/06 04:14:54;;;;;;;7.57;2.83;;;;;;;0.24;98.30;96451.34;2072980;28;20232;-61
2022/01/06 04:15:56;;;;;;;9.57;3.50;;;;;;;0.12;98.50;96439.69;2073062;28;20202;-61
2022/01/06 04:16:59;;;;;;;7.97;3.40;;;;;;;0.19;98.44;96454.03;2071470;28;20289;-61
2022/01/06 04:18:01;;;;;;;10.45;3.50;;;;;;;0.18;98.74;96454.09;2072585;28;20614;-61
2022/01/06 04:19:03;;;;;;;9.75;3.92;;;;;;;0.16;98.43;96443.84;2073008;28;20580;-61
2022/01/06 04:20:07;;;;;;;8.25;3.53;;;;;;;0.09;98.71;96442.31;2072928;28;20217;-61
2022/01/06 04:21:09;;;;;;;13.38;3.70;;;;;;;0.14;98.53;96445.63;2072978;28;20224;-61
2022/01/06 04:22:10;;;;;;;8.82;3.55;;;;;;;0.15;98.55;96438.72;2072618;28;20552;-61
2022/01/06 04:23:12;;;;;;;11.05;3.60;;;;;;;0.01;98.69;96405.66;2070119;28;20225;-61
2022/01/06 04:24:13;;;;;;;11.38;3.35;;;;;;;0.15;99.03;96438.72;2072912;28;20202;-61
2022/01/06 04:25:15;;;;;;;12.75;3.70;;;;;;;0.14;98.85;96414.72;2072739;28;20201;-61
2022/01/06 04:26:17;;;;;;;10.98;3.70;;;;;;;0.32;98.68;96448.53;2073029;28;20640;-61
2022/01/06 04:27:18;;;;;;;9.13;3.65;;;;;;;0.24;98.49;96443.63;2073040;28;20206;-61
2022/01/06 04:28:19;;;;;;;7.78;3.13;;;;;;;0.21;98.39;96427.41;2072561;28;20240;-61
2022/01/06 04:29:21;;;;;;;21.50;4.57;;;;;;;0.34;98.21;96454.47;2072962;28;20218;-61
2022/01/06 04:30:22;;;;;;;7.68;3.70;;;;;;;0.34;98.47;96454.47;2073048;28;20201;-61
2022/01/06 04:31:24;;;;;;;15.48;3.78;;;;;;;0.29;98.71;96446.03;2072970;28;20194;-61
2022/01/06 04:32:25;;;;;;;13.48;3.50;;;;;;;0.31;98.47;96457.13;2071902;28;20198;-61
2022/01/06 04:33:27;;;;;;;6.68;3.15;;;;;;;0.28;98.29;96452.09;2072433;28;20245;-61
2022/01/06 04:34:30;;;;;;;6.60;2.95;;;;;;;0.30;97.80;96458.03;2072948;28;20193;-61
2022/01/06 04:35:31;;;;;;;12.95;3.30;;;;;;;0.37;97.99;96456.94;2072998;28;20209;-61
2022/01/06 04:36:33;;;;;;;10.60;3.67;;;;;;;0.28;98.03;96452.09;2072798;28;20202;-61
2022/01/06 04:37:35;;;;;;;8.23;3.67;;;;;;;0.18;98.21;96436.91;2072595;28;20198;-61
2022/01/06 04:38:36;;;;;;;13.68;3.83;;;;;;;0.28;98.42;96454.69;2072886;28;20202;-61
2022/01/06 04:39:38;;;;;;;7.53;3.30;;;;;;;0.31;98.19;96452.00;2072341;28;20201;-61
2022/01/06 04:40:39;;;;;;;8.48;3.05;;;;;;;0.27;98.38;96456.38;2072907;28;20208;-61
2022/01/06 04:41:41;;;;;;;8.65;3.67;;;;;;;-0.08;98.63;96404.22;2072927;28;20657;-61
2022/01/06 04:42:43;;;;;;;10.75;3.15;;;;;;;0.26;98.48;96467.59;2072496;28;20216;-61
2022/01/06 04:43:44;;;;;;;7.88;3.15;;;;;;;0.33;98.68;96463.09;2072912;28;20197;-61
2022/01/06 04:44:46;;;;;;;4.78;3.00;;;;;;;0.36;98.33;96466.41;2072777;28;20237;-61
2022/01/06 04:45:48;;;;;;;6.97;2.58;;;;;;;0.22;98.39;96447.97;2072971;28;20212;-61
2022/01/06 04:46:49;;;;;;;8.82;2.83;;;;;;;0.35;98.11;96463.88;2072964;28;20204;-61
2022/01/06 04:47:51;;;;;;;9.05;3.33;;;;;;;0.28;98.28;96463.25;2072457;28;20190;-61
2022/01/06 04:48:52;;;;;;;10.05;3.40;;;;;;;0.15;98.49;96431.00;2072890;28;20205;-61
2022/01/06 04:49:53;;;;;;;10.95;3.20;;;;;;;0.37;97.75;96472.41;2072950;28;20194;-61
2022/01/06 04:50:55;;;;;;;9.00;3.10;;;;;;;0.00;97.90;96422.03;2072775;28;20566;-61
2022/01/06 04:51:56;;;;;;;8.52;3.25;;;;;;;0.35;97.90;96469.03;2072640;28;20209;-61
2022/01/06 04:52:58;;;;;;;10.70;3.83;;;;;;;0.36;97.93;96479.31;2072284;28;20228;-61
2022/01/06 04:54:03;;;;;;;7.75;3.63;;;;;;;0.30;98.09;96478.66;2072482;28;20194;-61
2022/01/06 04:55:05;;;;;;;15.18;2.95;;;;;;;0.30;97.76;96471.75;2072212;28;20208;-61
2022/01/06 04:56:07;;;;;;;6.40;3.10;;;;;;;0.11;97.98;96435.41;2072547;28;20193;-61
2022/01/06 04:57:09;;;;;;;10.88;3.08;;;;;;;0.24;98.02;96466.78;2072829;28;20554;-61
2022/01/06 04:58:10;;;;;;;14.10;3.00;;;;;;;0.30;98.13;96476.06;2072075;28;20232;-61
2022/01/06 04:59:11;;;;;;;10.50;3.17;;;;;;;0.34;97.88;96473.34;2072740;28;20221;-61
2022/01/06 05:00:13;;;;;;;6.25;2.50;;;;;;;0.33;97.83;96471.69;2072651;28;20594;-61
2022/01/06 05:01:15;;;;;;;14.02;3.60;;;;;;;0.33;97.92;96476.84;2072694;28;20202;-61
2022/01/06 05:02:17;;;;;;;12.48;3.28;;;;;;;0.38;97.72;96474.94;2072568;28;20247;-61
2022/01/06 05:03:18;;;;;;;10.52;3.20;;;;;;;0.25;97.60;96455.59;2071646;28;20291;-61
2022/01/06 05:04:20;;;;;;;13.13;2.70;;;;;;;0.32;97.81;96475.13;2072678;28;20656;-61
2022/01/06 05:05:22;;;;;;;4.72;2.75;;;;;;;0.19;97.45;96458.34;2072587;28;20244;-61